Terminal Aerodrome Forecast
Issued by NWS Sterling, VA

Current Version | Previous Version | Graphics & Text | Print | Product List | Glossary On
Versions: 1 2 3 4 5 6 7 8 9 10 11 12 13 14 15 16 17 18 19 20 21
000
FTUS41 KLWX 292000 AAB
TAFIAD
TAF AMD
KIAD 292047Z 2921/3024 16010KT 3SM -FZRAPL SCT025 OVC050
     FM300000 17008KT P6SM SCT025 BKN050
     FM300600 23007KT P6SM BKN050
     FM301200 31011KT P6SM BKN050
     FM301400 31014G35KT P6SM BKN050
     FM302200 31022G36KT P6SM SCT035=

USA.gov is the U.S. government's official web portal to all federal, state and local government web resources and services.